Time;durP1;ratioP1;P1;durP2;ratioP2;P2;SDS_P1;SDS_P2;PMS_P1;PMS_P2;Temp;Humidity;BMP_temperature;BMP_pressure;BME280_temperature;BME280_humidity;BME280_pressure;Samples;Min_cycle;Max_cycle;Signal;HPM_P1;HPM_P2
2022/03/24 00:01:34;;;;;;;16.27;11.87;;;3.50;99.90;;;;;;5065655;28;20187;-80
2022/03/24 00:03:59;;;;;;;19.67;11.80;;;3.50;99.90;;;;;;5076873;28;20201;-79
2022/03/24 00:06:25;;;;;;;19.60;12.00;;;3.50;99.90;;;;;;5071098;28;20205;-79
2022/03/24 00:08:50;;;;;;;19.27;11.67;;;3.50;99.90;;;;;;5079210;28;20197;-82
2022/03/24 00:11:17;;;;;;;20.20;12.00;;;3.40;99.90;;;;;;5080747;28;20205;-82
2022/03/24 00:13:43;;;;;;;18.00;11.30;;;3.40;99.90;;;;;;5081899;28;20254;-79
2022/03/24 00:16:10;;;;;;;18.37;11.63;;;3.30;99.90;;;;;;5070088;28;20234;-81
2022/03/24 00:18:35;;;;;;;17.93;11.03;;;3.40;99.90;;;;;;5069724;28;21268;-80
2022/03/24 00:21:02;;;;;;;20.03;12.27;;;3.60;99.90;;;;;;5080089;28;20257;-81
2022/03/24 00:23:28;;;;;;;17.77;10.87;;;3.50;99.90;;;;;;5079290;28;20200;-81
2022/03/24 00:25:54;;;;;;;20.33;11.87;;;3.40;99.90;;;;;;5078937;28;20211;-79
2022/03/24 00:28:20;;;;;;;18.57;11.13;;;3.40;99.90;;;;;;5069638;28;20185;-79
2022/03/24 00:30:45;;;;;;;20.80;11.60;;;3.30;99.90;;;;;;5078067;28;20326;-79
2022/03/24 00:33:12;;;;;;;20.07;11.80;;;3.30;99.90;;;;;;5080213;28;21925;-80
2022/03/24 00:35:38;;;;;;;17.77;11.47;;;3.30;99.90;;;;;;5068682;28;20177;-79
2022/03/24 00:38:05;;;;;;;17.33;11.40;;;3.20;99.90;;;;;;5068939;28;20668;-79
2022/03/24 00:40:30;;;;;;;19.80;12.33;;;3.10;99.90;;;;;;5078420;28;20166;-79
2022/03/24 00:42:56;;;;;;;19.57;12.70;;;3.10;99.90;;;;;;5068691;28;20192;-79
2022/03/24 00:45:22;;;;;;;17.70;10.70;;;3.00;99.90;;;;;;5077420;28;20181;-79
2022/03/24 00:47:48;;;;;;;19.80;11.63;;;2.90;99.90;;;;;;5079575;28;20595;-81
2022/03/24 00:50:14;;;;;;;18.77;11.23;;;2.80;99.90;;;;;;5078386;28;20177;-79
2022/03/24 00:52:43;;;;;;;19.07;11.37;;;2.80;99.90;;;;;;5066076;28;20212;-80
2022/03/24 00:55:12;;;;;;;18.40;11.00;;;2.80;99.90;;;;;;5076327;28;20189;-80
2022/03/24 00:57:39;;;;;;;19.10;11.47;;;2.80;99.90;;;;;;5069161;28;20174;-81
2022/03/24 01:00:06;;;;;;;19.07;12.00;;;2.70;99.90;;;;;;5067827;28;20238;-80
2022/03/24 01:02:34;;;;;;;20.77;12.30;;;2.60;99.90;;;;;;5068840;28;20720;-80
2022/03/24 01:05:01;;;;;;;18.70;11.30;;;2.60;99.90;;;;;;5078211;28;20258;-80
2022/03/24 01:07:28;;;;;;;19.93;13.07;;;2.40;99.90;;;;;;5068298;28;20870;-80
2022/03/24 01:09:53;;;;;;;19.17;11.87;;;2.40;99.90;;;;;;5066825;28;20192;-80
2022/03/24 01:12:19;;;;;;;18.47;11.83;;;2.40;99.90;;;;;;5068539;28;20628;-79
2022/03/24 01:14:44;;;;;;;20.33;12.37;;;2.50;99.90;;;;;;5067959;28;20283;-78
2022/03/24 01:17:14;;;;;;;22.47;13.47;;;2.60;99.90;;;;;;5078311;28;20178;-78
2022/03/24 01:19:40;;;;;;;18.90;12.03;;;2.50;99.90;;;;;;5079184;28;20166;-78
2022/03/24 01:22:06;;;;;;;21.93;12.80;;;2.50;99.90;;;;;;5068915;28;20211;-79
2022/03/24 01:24:31;;;;;;;19.10;12.33;;;2.40;99.90;;;;;;5068791;28;20211;-80
2022/03/24 01:26:57;;;;;;;21.40;12.00;;;2.40;99.90;;;;;;5069174;28;20177;-79
2022/03/24 01:29:23;;;;;;;20.90;12.23;;;2.30;99.90;;;;;;5068599;28;20217;-79
2022/03/24 01:31:48;;;;;;;19.73;12.00;;;2.30;99.90;;;;;;5069018;28;20630;-80
2022/03/24 01:34:16;;;;;;;20.33;11.83;;;2.30;99.90;;;;;;5077664;28;20205;-79
2022/03/24 01:36:42;;;;;;;19.30;12.03;;;2.30;99.90;;;;;;5068471;28;20670;-79
2022/03/24 01:39:08;;;;;;;19.87;12.40;;;2.30;99.90;;;;;;5068824;28;20173;-79
2022/03/24 01:41:34;;;;;;;20.90;12.37;;;2.20;99.90;;;;;;5083439;28;20188;-80
2022/03/24 01:44:00;;;;;;;19.13;11.80;;;2.10;99.90;;;;;;5085371;28;20217;-78
2022/03/24 01:46:25;;;;;;;20.70;12.00;;;2.10;99.90;;;;;;5085575;28;20185;-82
2022/03/24 01:48:51;;;;;;;20.80;12.17;;;2.00;99.90;;;;;;5092403;28;20223;-78
2022/03/24 01:51:17;;;;;;;18.70;12.60;;;1.90;99.90;;;;;;5096495;28;20205;-78
2022/03/24 01:53:42;;;;;;;20.93;12.33;;;1.90;99.90;;;;;;5082576;28;20593;-81
2022/03/24 01:56:08;;;;;;;21.37;13.13;;;1.80;99.90;;;;;;5094520;28;20173;-80
2022/03/24 01:58:37;;;;;;;20.07;12.33;;;1.80;99.90;;;;;;5085358;28;20187;-79
2022/03/24 02:01:26;;;;;;;20.20;13.43;;;1.70;99.90;;;;;;5086123;28;20181;-79
2022/03/24 02:03:54;;;;;;;21.43;12.53;;;1.70;99.90;;;;;;5097133;28;20187;-77
2022/03/24 02:06:19;;;;;;;20.83;12.87;;;1.80;99.90;;;;;;5085856;28;20185;-78
2022/03/24 02:08:45;;;;;;;20.40;12.33;;;1.70;99.90;;;;;;5084009;28;20319;-80
2022/03/24 02:11:11;;;;;;;21.00;13.43;;;1.60;99.90;;;;;;5071629;28;20204;-80
2022/03/24 02:13:37;;;;;;;21.33;12.73;;;1.70;99.90;;;;;;5071987;28;20190;-80
2022/03/24 02:16:10;;;;;;;20.90;12.67;;;1.70;99.90;;;;;;5071088;28;20201;-81
2022/03/24 02:18:35;;;;;;;20.33;12.37;;;1.60;99.90;;;;;;5070898;28;20177;-81
2022/03/24 02:21:01;;;;;;;19.57;12.70;;;1.70;99.90;;;;;;5070874;28;20267;-80
2022/03/24 02:23:26;;;;;;;20.67;12.43;;;1.70;99.90;;;;;;5070997;28;20231;-81
2022/03/24 02:25:55;;;;;;;21.10;12.43;;;1.70;99.90;;;;;;5082245;28;20196;-79
2022/03/24 02:28:22;;;;;;;21.43;12.53;;;1.70;99.90;;;;;;5070723;28;20294;-81
2022/03/24 02:30:50;;;;;;;18.43;11.30;;;1.70;99.90;;;;;;5070044;28;20213;-81
2022/03/24 02:33:21;;;;;;;21.37;12.07;;;1.70;99.90;;;;;;5070348;28;20566;-80
2022/03/24 02:35:48;;;;;;;18.30;11.40;;;1.60;99.90;;;;;;5072183;28;20177;-80
2022/03/24 02:38:13;;;;;;;20.23;12.23;;;1.60;99.90;;;;;;5070791;28;20177;-80
2022/03/24 02:40:39;;;;;;;18.90;11.10;;;1.60;99.90;;;;;;5070776;28;20181;-80
2022/03/24 02:43:05;;;;;;;17.07;10.73;;;1.50;99.90;;;;;;5081321;28;20178;-81
2022/03/24 02:45:30;;;;;;;18.73;12.20;;;1.50;99.90;;;;;;5080810;28;20196;-78
2022/03/24 02:47:56;;;;;;;19.53;11.90;;;1.40;99.90;;;;;;5069723;28;20186;-79
2022/03/24 02:50:22;;;;;;;19.50;12.13;;;1.50;99.90;;;;;;5077809;28;20183;-79
2022/03/24 02:52:48;;;;;;;20.40;12.50;;;1.50;99.90;;;;;;5070503;28;20213;-79
2022/03/24 02:55:13;;;;;;;18.80;11.90;;;1.40;99.90;;;;;;5081880;28;20197;-80
2022/03/24 02:57:39;;;;;;;19.27;12.53;;;1.40;99.90;;;;;;5081580;28;20189;-80
2022/03/24 03:00:06;;;;;;;19.83;11.90;;;1.40;99.90;;;;;;5079443;28;20277;-81
2022/03/24 03:02:32;;;;;;;19.73;11.60;;;1.40;99.90;;;;;;5069694;28;20209;-80
2022/03/24 03:04:58;;;;;;;23.23;13.20;;;1.30;99.90;;;;;;5069335;28;20229;-80
2022/03/24 03:07:23;;;;;;;19.33;12.07;;;1.30;99.90;;;;;;5068705;28;20212;-80
2022/03/24 03:09:49;;;;;;;18.93;11.60;;;1.30;99.90;;;;;;5081057;28;20220;-80
2022/03/24 03:12:16;;;;;;;19.87;12.10;;;1.20;99.90;;;;;;5069708;28;20218;-78
2022/03/24 03:14:42;;;;;;;20.73;11.87;;;1.30;99.90;;;;;;5081654;28;20197;-82
2022/03/24 03:17:08;;;;;;;20.37;12.10;;;1.30;99.90;;;;;;5070505;28;20201;-82
2022/03/24 03:19:34;;;;;;;20.73;11.83;;;1.30;99.90;;;;;;5070099;28;20242;-82
2022/03/24 03:22:01;;;;;;;21.90;13.30;;;1.20;99.90;;;;;;5070397;28;20209;-80
2022/03/24 03:24:26;;;;;;;23.43;13.23;;;1.20;99.90;;;;;;5070414;28;20341;-81
2022/03/24 03:26:53;;;;;;;24.43;13.90;;;1.20;99.90;;;;;;5070707;28;20662;-80
2022/03/24 03:29:19;;;;;;;21.50;12.93;;;1.20;99.90;;;;;;5080917;28;20226;-79
2022/03/24 03:31:45;;;;;;;20.33;12.83;;;1.10;99.90;;;;;;5082657;28;20251;-79
2022/03/24 03:34:11;;;;;;;19.97;11.70;;;1.00;99.90;;;;;;5067854;28;20350;-78
2022/03/24 03:36:40;;;;;;;17.53;11.63;;;1.00;99.90;;;;;;5070269;28;20209;-81
2022/03/24 03:39:07;;;;;;;22.20;12.70;;;0.90;99.90;;;;;;5071159;28;20178;-82
2022/03/24 03:41:34;;;;;;;29.30;15.57;;;1.00;99.90;;;;;;5073752;28;20222;-79
2022/03/24 03:43:59;;;;;;;34.23;16.43;;;1.00;99.90;;;;;;5074600;28;20205;-81
2022/03/24 03:46:25;;;;;;;30.27;14.03;;;0.90;99.90;;;;;;5086646;28;20204;-81
2022/03/24 03:48:51;;;;;;;33.37;16.37;;;0.90;99.90;;;;;;5087226;28;20624;-80
2022/03/24 03:51:17;;;;;;;33.53;17.20;;;0.90;99.90;;;;;;5083505;28;20205;-81
2022/03/24 03:53:43;;;;;;;27.03;15.87;;;0.90;99.90;;;;;;5085511;28;20273;-82
2022/03/24 03:56:09;;;;;;;27.37;14.40;;;0.90;99.90;;;;;;5074836;28;20287;-81
2022/03/24 03:58:35;;;;;;;24.60;14.40;;;0.90;99.90;;;;;;5088189;28;20181;-80
2022/03/24 04:01:05;;;;;;;26.27;15.00;;;0.90;99.90;;;;;;5082448;28;20189;-81
2022/03/24 04:03:33;;;;;;;22.00;13.17;;;0.80;99.90;;;;;;5080552;28;20204;-80
2022/03/24 04:06:04;;;;;;;25.20;12.63;;;0.70;99.90;;;;;;5073934;28;20216;-81
2022/03/24 04:08:31;;;;;;;19.87;11.97;;;0.60;99.90;;;;;;5067670;28;20255;-80
2022/03/24 04:10:57;;;;;;;21.63;12.10;;;0.50;99.90;;;;;;5070273;28;20220;-80
2022/03/24 04:13:24;;;;;;;18.90;11.23;;;0.50;99.90;;;;;;5077921;28;20205;-82
2022/03/24 04:15:51;;;;;;;19.27;11.97;;;0.50;99.90;;;;;;5073058;28;20189;-81
2022/03/24 04:18:17;;;;;;;18.30;11.67;;;0.50;99.90;;;;;;5081931;28;20177;-80
2022/03/24 04:20:43;;;;;;;16.47;10.97;;;0.50;99.90;;;;;;5069461;28;20450;-83
2022/03/24 04:23:09;;;;;;;18.37;10.93;;;0.40;99.90;;;;;;5067588;28;20235;-79
2022/03/24 04:25:36;;;;;;;17.50;11.50;;;0.50;99.90;;;;;;5075343;28;20291;-81
2022/03/24 04:28:03;;;;;;;17.53;11.50;;;0.40;99.90;;;;;;5067252;28;20215;-80
2022/03/24 04:30:29;;;;;;;21.83;10.53;;;0.40;99.90;;;;;;5085031;28;20181;-83
2022/03/24 04:32:55;;;;;;;19.10;10.97;;;0.50;99.90;;;;;;5067870;28;20209;-80
2022/03/24 04:35:21;;;;;;;19.27;11.43;;;0.50;99.90;;;;;;5071934;28;20181;-81
2022/03/24 04:37:48;;;;;;;18.93;10.47;;;0.40;99.90;;;;;;5081358;28;20181;-79
2022/03/24 04:40:17;;;;;;;18.07;11.40;;;0.40;99.90;;;;;;5082742;28;20451;-82
2022/03/24 04:42:49;;;;;;;21.77;12.30;;;0.40;99.90;;;;;;5079628;28;20190;-81
2022/03/24 04:45:17;;;;;;;21.73;12.17;;;0.30;99.90;;;;;;5070091;28;20678;-81
2022/03/24 04:47:43;;;;;;;19.17;11.83;;;0.30;99.90;;;;;;5078146;28;20602;-83
2022/03/24 04:50:10;;;;;;;21.87;11.47;;;0.20;99.90;;;;;;5071882;28;20331;-83
2022/03/24 04:52:35;;;;;;;21.17;11.73;;;0.20;99.90;;;;;;5073674;28;20653;-83
2022/03/24 04:55:01;;;;;;;20.07;11.33;;;0.20;99.90;;;;;;5074009;28;20284;-80
2022/03/24 04:57:28;;;;;;;17.87;10.83;;;0.10;99.90;;;;;;5084963;28;20177;-81
2022/03/24 04:59:54;;;;;;;18.90;10.37;;;0.30;99.90;;;;;;5072701;28;20192;-81
2022/03/24 05:02:20;;;;;;;19.60;11.33;;;0.30;99.90;;;;;;5088748;28;20193;-82
2022/03/24 05:04:45;;;;;;;18.93;10.80;;;0.20;99.90;;;;;;5075633;28;20205;-79
2022/03/24 05:07:11;;;;;;;17.57;11.37;;;0.30;99.90;;;;;;5070268;28;20189;-82
2022/03/24 05:09:37;;;;;;;19.33;11.53;;;0.30;99.90;;;;;;5070771;28;20272;-80
2022/03/24 05:12:04;;;;;;;21.60;11.37;;;0.30;99.90;;;;;;5074226;28;20259;-79
2022/03/24 05:14:31;;;;;;;17.97;10.90;;;0.30;99.90;;;;;;5071075;28;20198;-78
2022/03/24 05:16:57;;;;;;;20.80;11.00;;;0.30;99.90;;;;;;5064840;28;20499;-80
2022/03/24 05:19:22;;;;;;;16.53;10.33;;;0.20;99.90;;;;;;5064488;28;20213;-80
2022/03/24 05:21:48;;;;;;;18.90;10.80;;;0.20;99.90;;;;;;5075948;28;20685;-79
2022/03/24 05:24:14;;;;;;;19.97;10.70;;;0.20;99.90;;;;;;5077598;28;20202;-80
2022/03/24 05:26:40;;;;;;;19.07;11.23;;;0.10;99.90;;;;;;5067041;28;20262;-80
2022/03/24 05:29:06;;;;;;;19.60;11.87;;;0.20;99.90;;;;;;5077601;28;20221;-81
2022/03/24 05:31:32;;;;;;;20.90;11.63;;;0.20;99.90;;;;;;5067669;28;20751;-80
2022/03/24 05:33:58;;;;;;;19.27;11.80;;;0.30;99.90;;;;;;5065328;28;20687;-78
2022/03/24 05:36:23;;;;;;;21.27;12.00;;;0.20;99.90;;;;;;5068288;28;20188;-78
2022/03/24 05:38:51;;;;;;;20.83;12.43;;;0.20;99.90;;;;;;5078563;28;20843;-80
2022/03/24 05:41:17;;;;;;;20.43;12.33;;;0.00;99.90;;;;;;5066478;28;20189;-82
2022/03/24 05:46:41;;;;;;;19.27;12.07;;;-0.40;99.90;;;;;;5075525;28;20216;-80
2022/03/24 05:49:09;;;;;;;21.80;12.67;;;-0.20;99.90;;;;;;5078509;28;20182;-84
2022/03/24 05:51:35;;;;;;;20.33;11.53;;;-0.10;99.90;;;;;;5079481;28;20259;-77
2022/03/24 05:54:01;;;;;;;21.30;12.27;;;0.10;99.90;;;;;;5079678;28;20194;-83
2022/03/24 05:56:27;;;;;;;20.37;12.40;;;0.30;99.90;;;;;;5068318;28;20185;-79
2022/03/24 05:58:53;;;;;;;21.17;12.13;;;0.30;99.90;;;;;;5069042;28;20185;-83
2022/03/24 06:01:20;;;;;;;19.03;11.40;;;0.30;99.90;;;;;;5068441;28;20824;-78
2022/03/24 06:03:47;;;;;;;18.33;12.40;;;0.40;99.90;;;;;;5067962;28;20853;-78
2022/03/24 06:06:13;;;;;;;19.07;12.23;;;0.50;99.90;;;;;;5068548;28;20185;-80
2022/03/24 06:08:43;;;;;;;20.17;12.53;;;0.60;99.90;;;;;;5069272;28;20180;-80
2022/03/24 06:11:13;;;;;;;21.40;12.03;;;0.70;99.90;;;;;;5081163;28;20200;-79
2022/03/24 06:13:40;;;;;;;21.83;12.70;;;0.70;99.90;;;;;;5080616;28;20670;-78
2022/03/24 06:16:06;;;;;;;26.53;13.00;;;0.90;99.90;;;;;;5079541;28;20176;-79
2022/03/24 06:18:32;;;;;;;25.13;14.00;;;1.00;99.90;;;;;;5069767;28;20181;-81
2022/03/24 06:20:59;;;;;;;22.30;12.80;;;1.10;99.90;;;;;;5069305;28;20185;-80
2022/03/24 06:23:25;;;;;;;21.97;12.80;;;1.20;99.90;;;;;;5067869;28;20201;-81
2022/03/24 06:25:51;;;;;;;22.00;13.20;;;1.30;99.90;;;;;;5068479;28;20262;-79
2022/03/24 06:28:17;;;;;;;24.40;12.83;;;1.50;99.90;;;;;;5080347;28;20201;-82
2022/03/24 06:30:42;;;;;;;22.37;13.50;;;1.50;99.90;;;;;;5067971;28;20178;-79
2022/03/24 06:33:09;;;;;;;20.97;12.60;;;1.60;99.90;;;;;;5069472;28;21277;-82
2022/03/24 06:35:34;;;;;;;20.93;12.77;;;1.80;99.90;;;;;;5067652;28;20198;-82
2022/03/24 06:38:00;;;;;;;26.10;13.57;;;1.90;99.90;;;;;;5078138;28;20636;-79
2022/03/24 06:40:26;;;;;;;23.63;14.93;;;2.00;99.90;;;;;;5068621;28;20212;-80
2022/03/24 06:42:53;;;;;;;23.67;13.90;;;2.10;99.90;;;;;;5067515;28;20192;-80
2022/03/24 06:45:19;;;;;;;23.57;14.50;;;2.20;99.90;;;;;;5068540;28;20299;-81
2022/03/24 06:47:45;;;;;;;23.20;15.07;;;2.30;99.90;;;;;;5060544;28;20183;-80
2022/03/24 06:50:13;;;;;;;27.67;14.53;;;2.50;99.90;;;;;;5065812;28;20182;-80
2022/03/24 06:52:39;;;;;;;24.13;14.47;;;2.60;99.90;;;;;;5076315;28;20209;-80
2022/03/24 06:55:06;;;;;;;23.40;13.80;;;2.70;99.90;;;;;;5067420;28;20197;-83
2022/03/24 06:57:32;;;;;;;25.23;14.73;;;2.90;99.90;;;;;;5075539;28;20180;-78
2022/03/24 06:59:57;;;;;;;23.23;14.13;;;3.10;99.90;;;;;;5070130;28;20173;-79
2022/03/24 07:02:23;;;;;;;21.43;13.23;;;3.30;99.90;;;;;;5069542;28;20601;-79
2022/03/24 07:04:49;;;;;;;25.23;14.50;;;3.40;99.90;;;;;;5064755;28;20212;-80
2022/03/24 07:07:14;;;;;;;24.50;13.63;;;3.60;99.90;;;;;;5062681;28;20196;-79
2022/03/24 07:09:40;;;;;;;26.50;14.33;;;3.80;99.90;;;;;;5065393;28;20181;-78
2022/03/24 07:12:06;;;;;;;21.50;13.70;;;4.00;99.90;;;;;;5065420;28;20592;-79
2022/03/24 07:14:32;;;;;;;25.70;14.33;;;4.10;99.90;;;;;;5067125;28;20204;-79
2022/03/24 07:16:57;;;;;;;24.47;15.00;;;4.20;99.90;;;;;;5066920;28;20249;-82
2022/03/24 07:19:23;;;;;;;23.20;14.50;;;4.30;99.90;;;;;;5067430;28;20189;-82
2022/03/24 07:21:48;;;;;;;21.63;13.80;;;4.50;99.90;;;;;;5068490;28;20193;-80
2022/03/24 07:24:14;;;;;;;23.67;14.37;;;4.70;99.90;;;;;;5078088;28;20284;-81
2022/03/24 07:26:40;;;;;;;23.13;14.67;;;4.90;99.90;;;;;;5066471;28;20201;-81
2022/03/24 07:29:06;;;;;;;23.40;14.07;;;5.00;99.90;;;;;;5077293;28;21072;-79
2022/03/24 07:31:32;;;;;;;22.47;13.93;;;5.30;99.90;;;;;;5066291;28;20209;-83
2022/03/24 07:33:59;;;;;;;22.57;14.30;;;5.50;99.90;;;;;;5064745;28;20449;-80
2022/03/24 07:36:25;;;;;;;23.03;13.67;;;5.60;99.90;;;;;;5065616;28;20262;-79
2022/03/24 07:38:56;;;;;;;24.17;15.00;;;5.80;99.90;;;;;;5065905;28;20247;-79
2022/03/24 07:41:22;;;;;;;24.13;14.10;;;5.90;99.90;;;;;;5064029;28;20173;-83
2022/03/24 07:43:48;;;;;;;25.77;15.30;;;6.00;99.90;;;;;;5064986;28;20204;-80
2022/03/24 07:46:14;;;;;;;22.50;14.30;;;6.20;99.90;;;;;;5065715;28;20205;-79
2022/03/24 07:48:39;;;;;;;25.80;15.33;;;6.50;99.90;;;;;;5076689;28;20216;-81
2022/03/24 07:51:06;;;;;;;24.23;14.10;;;6.70;99.90;;;;;;5065695;28;20204;-80
2022/03/24 07:53:34;;;;;;;23.37;14.80;;;6.80;99.90;;;;;;5064217;28;20678;-80
2022/03/24 07:56:01;;;;;;;25.67;15.87;;;7.00;99.90;;;;;;5065453;28;20254;-81
2022/03/24 07:58:27;;;;;;;20.47;13.93;;;7.20;99.90;;;;;;5066630;28;20280;-78
2022/03/24 08:00:56;;;;;;;24.10;14.73;;;7.30;99.90;;;;;;5066316;28;20398;-80
2022/03/24 08:03:22;;;;;;;24.53;14.70;;;7.60;99.90;;;;;;5063716;28;20291;-80
2022/03/24 08:05:48;;;;;;;23.73;15.13;;;7.90;99.90;;;;;;5069784;28;20241;-79
2022/03/24 08:08:15;;;;;;;23.17;14.33;;;8.20;99.90;;;;;;5071950;28;20279;-81
2022/03/24 08:10:42;;;;;;;21.13;14.60;;;8.40;99.90;;;;;;5071464;28;20182;-80
2022/03/24 08:13:09;;;;;;;24.30;15.40;;;8.50;99.90;;;;;;5070509;28;20596;-79
2022/03/24 08:15:36;;;;;;;22.13;14.00;;;8.70;99.90;;;;;;5066266;28;20227;-81
2022/03/24 08:18:04;;;;;;;23.97;14.67;;;8.90;99.90;;;;;;5059929;28;20604;-81
2022/03/24 08:20:30;;;;;;;26.83;14.87;;;9.10;99.90;;;;;;5071774;28;20178;-79
2022/03/24 08:22:56;;;;;;;24.87;15.03;;;9.20;99.90;;;;;;5073983;28;20192;-80
2022/03/24 08:25:22;;;;;;;26.07;15.30;;;9.30;99.90;;;;;;5072105;28;20193;-80
2022/03/24 08:27:48;;;;;;;25.97;15.97;;;9.50;99.90;;;;;;5067980;28;20193;-79
2022/03/24 08:30:14;;;;;;;25.63;15.60;;;9.60;99.90;;;;;;5066129;28;20185;-79
2022/03/24 08:32:40;;;;;;;22.20;14.43;;;9.80;99.90;;;;;;5069330;28;20201;-80
2022/03/24 08:35:07;;;;;;;24.37;14.50;;;9.80;99.90;;;;;;5074590;28;20192;-81
2022/03/24 08:37:32;;;;;;;25.47;16.27;;;10.00;99.90;;;;;;5070682;28;20647;-80
2022/03/24 08:39:58;;;;;;;25.03;15.27;;;10.20;99.90;;;;;;5066086;28;20201;-80
2022/03/24 08:42:23;;;;;;;26.50;15.63;;;10.20;99.90;;;;;;5064773;28;20181;-80
2022/03/24 08:44:49;;;;;;;23.13;15.33;;;10.30;99.90;;;;;;5064575;28;20208;-80
2022/03/24 08:47:15;;;;;;;24.17;15.90;;;10.40;99.90;;;;;;5075555;28;20259;-80
2022/03/24 08:49:41;;;;;;;25.57;16.73;;;10.50;99.90;;;;;;5065757;28;20186;-80
2022/03/24 08:52:07;;;;;;;23.77;16.30;;;10.50;99.90;;;;;;5066073;28;20194;-81
2022/03/24 08:54:33;;;;;;;26.43;15.73;;;10.80;99.90;;;;;;5066605;28;20203;-81
2022/03/24 08:56:58;;;;;;;26.13;16.07;;;10.90;99.90;;;;;;5066811;28;20651;-81
2022/03/24 08:59:24;;;;;;;25.73;16.23;;;11.00;99.90;;;;;;5064452;28;20178;-81
2022/03/24 09:01:49;;;;;;;25.97;16.33;;;11.00;99.90;;;;;;5071634;28;20186;-81
2022/03/24 09:04:16;;;;;;;23.77;16.07;;;11.20;99.90;;;;;;5077800;28;20272;-81
2022/03/24 09:06:41;;;;;;;24.77;15.50;;;11.10;99.90;;;;;;5068009;28;20181;-82
2022/03/24 09:09:07;;;;;;;24.87;16.70;;;11.20;99.90;;;;;;5067680;28;20561;-82
2022/03/24 09:11:33;;;;;;;25.03;15.40;;;11.40;99.90;;;;;;5066699;28;20212;-80
2022/03/24 09:13:58;;;;;;;26.30;16.70;;;11.60;99.90;;;;;;5065437;28;20201;-80
2022/03/24 09:16:24;;;;;;;29.97;17.07;;;11.80;99.90;;;;;;5063669;28;20174;-78
2022/03/24 09:18:49;;;;;;;26.80;16.93;;;12.00;99.90;;;;;;5063878;28;20209;-79
2022/03/24 09:21:16;;;;;;;26.87;17.50;;;12.10;99.90;;;;;;5063060;28;20191;-79
2022/03/24 09:23:42;;;;;;;23.23;16.30;;;12.20;99.90;;;;;;5063044;28;20212;-80
2022/03/24 09:26:08;;;;;;;31.17;17.20;;;12.40;99.90;;;;;;5069069;28;20205;-80
2022/03/24 09:28:34;;;;;;;27.73;16.90;;;12.50;99.90;;;;;;5063731;28;20189;-80
2022/03/24 09:31:00;;;;;;;26.95;17.17;;;12.70;99.30;;;;;;5062185;28;20185;-79
2022/03/24 09:33:26;;;;;;;24.85;16.30;;;12.80;98.10;;;;;;5066051;28;20232;-81
2022/03/24 09:35:52;;;;;;;25.55;17.25;;;12.90;97.90;;;;;;5063220;28;20642;-80
2022/03/24 09:38:17;;;;;;;27.15;16.85;;;13.00;97.40;;;;;;5067101;28;20189;-81
2022/03/24 09:40:43;;;;;;;25.92;16.30;;;12.90;96.70;;;;;;5066499;28;20190;-80
2022/03/24 09:43:09;;;;;;;23.73;16.60;;;12.90;97.10;;;;;;5062794;28;20804;-80
2022/03/24 09:45:37;;;;;;;25.30;16.80;;;13.10;97.10;;;;;;5062183;28;20940;-81
2022/03/24 09:48:06;;;;;;;26.73;17.17;;;13.30;96.50;;;;;;5071059;28;20212;-81
2022/03/24 09:50:34;;;;;;;30.38;17.98;;;13.30;96.20;;;;;;5062653;28;20186;-81
2022/03/24 09:53:00;;;;;;;25.30;16.80;;;13.40;96.10;;;;;;5066245;28;20208;-83
2022/03/24 09:55:27;;;;;;;24.50;16.58;;;13.50;95.70;;;;;;5064779;28;20204;-82
2022/03/24 09:57:53;;;;;;;26.45;16.35;;;13.60;95.80;;;;;;5064648;28;20185;-78
2022/03/24 10:00:20;;;;;;;29.70;16.77;;;13.30;95.00;;;;;;5076800;28;20219;-80
2022/03/24 10:03:11;;;;;;;27.30;18.00;;;13.50;95.60;;;;;;5073246;28;20230;-79
2022/03/24 10:05:59;;;;;;;26.30;16.52;;;13.70;95.20;;;;;;5063071;28;20185;-79
2022/03/24 10:08:27;;;;;;;26.83;16.92;;;13.70;94.80;;;;;;5063493;28;20189;-80
2022/03/24 10:11:04;;;;;;;28.95;16.88;;;13.80;94.90;;;;;;5067567;28;20208;-81
2022/03/24 10:13:53;;;;;;;25.15;17.05;;;13.90;94.00;;;;;;5076744;28;20204;-83
2022/03/24 10:16:33;;;;;;;28.13;16.90;;;13.80;93.70;;;;;;5071974;28;20166;-81
2022/03/24 10:19:01;;;;;;;23.48;16.23;;;13.90;93.30;;;;;;5066056;28;20260;-82
2022/03/24 10:21:32;;;;;;;26.23;17.13;;;13.90;93.30;;;;;;5075142;28;20184;-82
2022/03/24 10:24:03;;;;;;;29.50;17.63;;;14.10;93.70;;;;;;5064146;28;20204;-81
2022/03/24 10:26:42;;;;;;;25.23;17.23;;;14.20;93.30;;;;;;5076858;28;20200;-81
2022/03/24 10:29:10;;;;;;;25.95;17.10;;;14.40;92.50;;;;;;5065793;28;20212;-80
2022/03/24 10:31:37;;;;;;;24.83;17.73;;;14.40;92.70;;;;;;5066373;28;20240;-80
2022/03/24 10:34:03;;;;;;;27.63;17.10;;;14.50;92.10;;;;;;5076591;28;20201;-81
2022/03/24 10:36:30;;;;;;;25.80;17.48;;;14.50;92.70;;;;;;5064719;28;20177;-81
2022/03/24 10:39:04;;;;;;;28.58;17.67;;;14.70;91.70;;;;;;5065397;28;20260;-81
2022/03/24 10:41:35;;;;;;;25.63;17.05;;;14.70;91.60;;;;;;5065351;28;20180;-80
2022/03/24 10:44:06;;;;;;;31.60;17.50;;;14.90;91.60;;;;;;5057117;28;20586;-82
2022/03/24 10:46:34;;;;;;;27.50;17.40;;;15.20;91.00;;;;;;5077200;28;20183;-80
2022/03/24 10:49:14;;;;;;;25.40;16.83;;;15.30;91.00;;;;;;5074016;28;20268;-81
2022/03/24 10:51:43;;;;;;;24.98;16.70;;;15.40;89.70;;;;;;5064786;28;20670;-79
2022/03/24 10:54:28;;;;;;;25.52;17.90;;;15.40;85.80;;;;;;5064278;28;20201;-82
2022/03/24 10:56:59;;;;;;;23.27;16.88;;;15.30;86.50;;;;;;5065041;28;20613;-81
2022/03/24 10:59:29;;;;;;;26.52;17.77;;;15.50;87.10;;;;;;5065144;28;20192;-80
2022/03/24 11:01:55;;;;;;;22.20;15.23;;;15.50;85.80;;;;;;5065811;28;20176;-79
2022/03/24 11:04:21;;;;;;;27.17;15.88;;;15.30;83.20;;;;;;5062287;28;20259;-79
2022/03/24 11:06:51;;;;;;;23.08;15.75;;;15.30;82.00;;;;;;5061339;28;20176;-81
2022/03/24 11:09:27;;;;;;;24.42;16.27;;;15.30;81.40;;;;;;5062412;28;20188;-81
2022/03/24 11:12:28;;;;;;;24.42;16.48;;;15.30;81.10;;;;;;5070509;28;20670;-81
2022/03/24 11:15:03;;;;;;;27.88;16.80;;;15.60;82.40;;;;;;5060973;28;20204;-86
2022/03/24 11:17:31;;;;;;;28.33;17.02;;;15.70;81.60;;;;;;5063523;28;20203;-81
2022/03/24 11:20:09;;;;;;;25.27;17.38;;;15.50;82.20;;;;;;5061557;28;20206;-79
2022/03/24 11:22:44;;;;;;;25.70;17.25;;;15.60;82.40;;;;;;5064456;28;20646;-80
2022/03/24 11:25:10;;;;;;;23.95;15.82;;;15.80;82.30;;;;;;5070768;28;20208;-80
2022/03/24 11:27:36;;;;;;;25.50;16.33;;;15.60;80.00;;;;;;5062364;28;20189;-79
2022/03/24 11:30:04;;;;;;;25.15;15.70;;;15.70;78.70;;;;;;5078473;28;20185;-80
2022/03/24 11:32:34;;;;;;;25.92;16.75;;;16.00;80.50;;;;;;5071204;28;20392;-80
2022/03/24 11:35:01;;;;;;;25.90;16.70;;;16.10;78.00;;;;;;5060658;28;20254;-79
2022/03/24 11:37:27;;;;;;;25.23;16.42;;;16.30;78.40;;;;;;5071114;28;20181;-79
2022/03/24 11:40:23;;;;;;;24.15;16.27;;;16.50;77.00;;;;;;5063350;28;20457;-79
2022/03/24 11:42:51;;;;;;;22.17;14.88;;;16.50;76.10;;;;;;5062262;28;20185;-81
2022/03/24 11:45:25;;;;;;;26.15;16.48;;;16.50;73.90;;;;;;5064739;28;20196;-80
2022/03/24 11:47:52;;;;;;;23.10;15.68;;;16.30;73.70;;;;;;5073804;28;20666;-80
2022/03/24 11:50:34;;;;;;;23.23;15.15;;;16.10;73.70;;;;;;5073443;28;20265;-80
2022/03/24 11:53:11;;;;;;;23.20;14.45;;;16.00;73.30;;;;;;5073260;28;20452;-79
2022/03/24 11:55:37;;;;;;;23.52;15.40;;;16.30;74.00;;;;;;5075035;28;20172;-80
2022/03/24 11:58:04;;;;;;;24.27;15.05;;;16.60;73.50;;;;;;5066989;28;20180;-80
2022/03/24 12:00:30;;;;;;;23.20;15.32;;;16.60;70.90;;;;;;5063062;28;20460;-80
2022/03/24 12:03:01;;;;;;;25.83;15.70;;;16.40;69.70;;;;;;5083759;28;20193;-81
2022/03/24 12:05:46;;;;;;;22.42;15.60;;;16.30;70.40;;;;;;5074031;28;20188;-80
2022/03/24 12:08:11;;;;;;;22.60;14.98;;;16.30;70.90;;;;;;5079209;28;20212;-80
2022/03/24 12:10:37;;;;;;;24.05;15.40;;;16.30;71.50;;;;;;5080517;28;20196;-81
2022/03/24 12:13:21;;;;;;;23.17;15.38;;;16.50;72.10;;;;;;5065014;28;20205;-80
2022/03/24 12:16:13;;;;;;;25.23;14.88;;;16.70;70.90;;;;;;5067727;28;20685;-81
2022/03/24 12:18:43;;;;;;;24.77;15.93;;;16.40;70.50;;;;;;5068118;28;20662;-81
2022/03/24 12:21:25;;;;;;;24.92;15.80;;;16.30;71.00;;;;;;5076500;28;20254;-81
2022/03/24 12:24:09;;;;;;;24.98;15.43;;;16.60;71.80;;;;;;5065311;28;20276;-80
2022/03/24 12:26:53;;;;;;;22.67;15.13;;;16.80;70.80;;;;;;5067020;28;20210;-80
2022/03/24 12:29:24;;;;;;;22.85;13.88;;;17.00;69.30;;;;;;5077338;28;20169;-82
2022/03/24 12:32:27;;;;;;;23.08;14.57;;;17.10;68.50;;;;;;5065711;28;20205;-81
2022/03/24 12:34:52;;;;;;;21.48;14.38;;;17.20;67.80;;;;;;5046672;28;20223;-81
2022/03/24 12:37:29;;;;;;;22.55;13.88;;;17.20;66.20;;;;;;5064380;28;20458;-81
2022/03/24 12:40:13;;;;;;;21.95;13.45;;;17.20;66.10;;;;;;5064448;28;20173;-81